Time;durP1;ratioP1;P1;durP2;ratioP2;P2;SDS_P1;SDS_P2;PMS_P1;PMS_P2;Temp;Humidity;BMP_temperature;BMP_pressure;BME280_temperature;BME280_humidity;BME280_pressure;Samples;Min_cycle;Max_cycle;Signal;HPM_P1;HPM_P2
2021/09/05 00:01:05;;;;;;;31.15;20.27;;;13.10;98.80;;;;;;4949755;28;20118;-82
2021/09/05 00:03:30;;;;;;;27.20;18.48;;;13.20;98.80;;;;;;4929174;29;20046;-83
2021/09/05 00:05:56;;;;;;;30.33;19.80;;;13.30;99.50;;;;;;4947124;28;20039;-82
2021/09/05 00:08:23;;;;;;;28.92;19.10;;;13.30;98.70;;;;;;4925271;28;20055;-82
2021/09/05 00:10:49;;;;;;;34.13;21.08;;;13.30;98.70;;;;;;4931346;28;20058;-83
2021/09/05 00:13:14;;;;;;;29.20;19.33;;;13.10;99.00;;;;;;4951000;28;20043;-83
2021/09/05 00:15:40;;;;;;;33.90;18.98;;;13.20;99.30;;;;;;4936561;29;20053;-81
2021/09/05 00:18:06;;;;;;;35.53;20.70;;;13.10;99.50;;;;;;4933884;28;20487;-82
2021/09/05 00:20:31;;;;;;;31.77;19.92;;;13.10;99.30;;;;;;4924341;28;20077;-82
2021/09/05 00:22:57;;;;;;;36.42;20.85;;;13.10;99.00;;;;;;4932407;28;20037;-82
2021/09/05 00:25:22;;;;;;;36.78;19.25;;;13.10;98.30;;;;;;4925569;28;20145;-82
2021/09/05 00:27:48;;;;;;;40.15;19.98;;;13.20;98.00;;;;;;4927474;28;20122;-82
2021/09/05 00:30:13;;;;;;;33.10;20.65;;;13.00;97.90;;;;;;4941895;28;20027;-82
2021/09/05 00:32:39;;;;;;;32.95;20.20;;;13.00;98.00;;;;;;4920104;28;20039;-81
2021/09/05 00:35:05;;;;;;;36.20;21.40;;;12.70;98.40;;;;;;4965697;28;20094;-83
2021/09/05 00:37:31;;;;;;;34.63;19.15;;;12.60;98.70;;;;;;4923396;29;20559;-84
2021/09/05 00:39:56;;;;;;;33.78;19.00;;;12.60;99.10;;;;;;4960542;28;20126;-82
2021/09/05 00:42:25;;;;;;;35.50;20.67;;;12.80;99.90;;;;;;4950868;28;20031;-83
2021/09/05 00:44:51;;;;;;;32.95;20.00;;;12.80;99.90;;;;;;4944017;28;20038;-82
2021/09/05 00:47:17;;;;;;;38.30;20.73;;;12.90;99.90;;;;;;4912657;28;20171;-83
2021/09/05 00:49:43;;;;;;;42.80;21.35;;;12.70;98.80;;;;;;4943610;28;20058;-82
2021/09/05 00:52:08;;;;;;;32.10;20.10;;;12.70;99.60;;;;;;4942403;28;20033;-82
2021/09/05 00:54:34;;;;;;;36.10;20.30;;;12.70;99.90;;;;;;4924950;28;20118;-83
2021/09/05 00:57:00;;;;;;;38.33;20.65;;;12.70;99.90;;;;;;4926731;28;21236;-82
2021/09/05 00:59:27;;;;;;;37.05;21.52;;;12.70;99.90;;;;;;4918836;29;20471;-82
2021/09/05 01:01:52;;;;;;;33.45;20.65;;;12.70;99.90;;;;;;4924864;29;20039;-82
2021/09/05 01:04:18;;;;;;;40.17;21.85;;;12.70;99.90;;;;;;4930672;28;20034;-82
2021/09/05 01:06:43;;;;;;;36.38;21.02;;;12.70;99.90;;;;;;4921865;28;20074;-82
2021/09/05 01:09:09;;;;;;;37.58;21.67;;;12.60;99.90;;;;;;4929771;29;20107;-82
2021/09/05 01:11:35;;;;;;;38.45;21.23;;;12.60;99.90;;;;;;4896257;29;20039;-83
2021/09/05 01:14:07;;;;;;;36.45;20.83;;;12.50;99.90;;;;;;4913266;29;20443;-82
2021/09/05 01:16:37;;;;;;;38.42;22.23;;;12.40;99.90;;;;;;4930407;29;20484;-82
2021/09/05 01:19:07;;;;;;;34.65;20.33;;;12.50;99.90;;;;;;4949004;28;20027;-81
2021/09/05 01:21:33;;;;;;;39.67;22.00;;;12.60;99.90;;;;;;4935600;28;20035;-82
2021/09/05 01:24:00;;;;;;;33.00;21.13;;;12.60;99.90;;;;;;4957691;28;20034;-83
2021/09/05 01:26:26;;;;;;;36.88;20.75;;;12.50;99.90;;;;;;4924648;28;20043;-82
2021/09/05 01:28:53;;;;;;;39.17;21.95;;;12.50;99.90;;;;;;4954703;28;20399;-82
2021/09/05 01:31:19;;;;;;;36.38;20.27;;;12.30;99.10;;;;;;4958695;28;20030;-82
2021/09/05 01:33:45;;;;;;;40.92;21.17;;;12.20;99.90;;;;;;4922384;28;20035;-82
2021/09/05 01:36:10;;;;;;;42.30;22.52;;;12.30;99.60;;;;;;4966257;28;20040;-83
2021/09/05 01:38:36;;;;;;;32.45;19.75;;;12.30;99.90;;;;;;4935515;28;20092;-82
2021/09/05 01:41:01;;;;;;;35.30;19.73;;;12.40;99.30;;;;;;4951932;28;20035;-82
2021/09/05 01:43:36;;;;;;;40.28;21.13;;;12.40;99.20;;;;;;4929652;28;20036;-82
2021/09/05 01:46:02;;;;;;;33.45;20.05;;;12.30;99.80;;;;;;4931159;28;20113;-82
2021/09/05 01:48:27;;;;;;;34.30;20.83;;;12.30;99.90;;;;;;4932645;28;20031;-82
2021/09/05 01:50:53;;;;;;;37.80;21.63;;;12.30;99.50;;;;;;4929359;28;20034;-82
2021/09/05 01:53:18;;;;;;;41.42;20.77;;;12.20;99.40;;;;;;4929048;28;20057;-82
2021/09/05 01:55:44;;;;;;;34.33;19.45;;;12.10;99.60;;;;;;4924354;28;20066;-82
2021/09/05 01:58:09;;;;;;;36.70;19.60;;;12.10;99.20;;;;;;4984574;28;20550;-82
2021/09/05 02:00:35;;;;;;;34.85;20.67;;;12.00;99.90;;;;;;4924904;29;20023;-82
2021/09/05 02:03:01;;;;;;;34.92;20.02;;;12.00;99.90;;;;;;4954526;28;20056;-83
2021/09/05 02:05:26;;;;;;;36.70;21.73;;;12.00;99.90;;;;;;4924610;28;20495;-82
2021/09/05 02:07:52;;;;;;;37.30;21.52;;;12.00;99.90;;;;;;4931606;28;20462;-82
2021/09/05 02:10:17;;;;;;;37.47;20.83;;;12.00;99.90;;;;;;4915685;28;20028;-82
2021/09/05 02:12:43;;;;;;;34.20;19.95;;;11.90;99.90;;;;;;4922081;28;20042;-82
2021/09/05 02:15:09;;;;;;;41.63;22.25;;;11.80;99.90;;;;;;4953295;28;20031;-83
2021/09/05 02:17:34;;;;;;;37.17;21.40;;;11.80;99.90;;;;;;4938181;28;20394;-82
2021/09/05 02:20:00;;;;;;;37.08;20.95;;;11.80;99.40;;;;;;4922247;28;20050;-82
2021/09/05 02:22:26;;;;;;;34.38;20.42;;;11.80;99.90;;;;;;4922300;28;20049;-82
2021/09/05 02:24:51;;;;;;;37.80;20.63;;;11.70;99.90;;;;;;4935332;28;20058;-87
2021/09/05 02:27:17;;;;;;;43.30;21.73;;;11.80;99.90;;;;;;4920278;29;20045;-87
2021/09/05 02:29:49;;;;;;;34.05;20.90;;;11.70;99.90;;;;;;4946404;28;20026;-86
2021/09/05 02:32:15;;;;;;;37.67;20.92;;;11.70;99.90;;;;;;4926181;28;20062;-87
2021/09/05 02:34:40;;;;;;;38.78;21.45;;;11.70;99.90;;;;;;4903063;29;20055;-87
2021/09/05 02:37:06;;;;;;;35.58;20.95;;;11.60;99.90;;;;;;4932524;29;20023;-87
2021/09/05 02:39:31;;;;;;;37.17;20.70;;;11.60;99.90;;;;;;4920937;29;20553;-87
2021/09/05 02:41:57;;;;;;;41.10;19.80;;;11.70;99.90;;;;;;4935959;29;20035;-88
2021/09/05 02:44:22;;;;;;;39.13;21.15;;;11.70;99.90;;;;;;4914039;29;20027;-88
2021/09/05 02:46:48;;;;;;;35.50;19.85;;;11.60;99.90;;;;;;4917422;29;20114;-88
2021/09/05 02:49:13;;;;;;;37.25;19.50;;;11.60;99.90;;;;;;4934754;29;20039;-82
2021/09/05 02:51:40;;;;;;;34.47;21.55;;;11.60;99.90;;;;;;4918786;29;20031;-82
2021/09/05 02:54:06;;;;;;;38.67;21.50;;;11.70;99.90;;;;;;4931954;29;20031;-81
2021/09/05 02:56:31;;;;;;;43.88;21.85;;;11.70;99.90;;;;;;4904606;29;20488;-83
2021/09/05 02:58:57;;;;;;;33.05;18.83;;;11.60;99.90;;;;;;4917393;29;20039;-82
2021/09/05 03:01:22;;;;;;;35.55;21.65;;;11.60;99.90;;;;;;4914196;29;20396;-82
2021/09/05 03:03:48;;;;;;;38.17;20.15;;;11.60;99.90;;;;;;4917762;29;20500;-83
2021/09/05 03:06:13;;;;;;;36.60;21.48;;;11.60;99.90;;;;;;4913108;29;20732;-82
2021/09/05 03:08:39;;;;;;;37.83;20.73;;;11.50;99.90;;;;;;4915832;29;20102;-82
2021/09/05 03:11:04;;;;;;;42.03;22.95;;;11.50;99.90;;;;;;4927273;28;20448;-82
2021/09/05 03:13:30;;;;;;;36.03;20.60;;;11.50;99.90;;;;;;4897779;29;20483;-81
2021/09/05 03:15:55;;;;;;;39.17;20.63;;;11.40;99.90;;;;;;4912929;28;20071;-81
2021/09/05 03:18:21;;;;;;;36.83;20.95;;;11.50;99.70;;;;;;4915675;29;20095;-81
2021/09/05 03:20:47;;;;;;;36.50;21.10;;;11.50;99.90;;;;;;4933325;28;20122;-81
2021/09/05 03:23:12;;;;;;;47.63;20.75;;;11.40;99.90;;;;;;4917576;29;20107;-82
2021/09/05 03:25:38;;;;;;;41.95;22.52;;;11.40;99.90;;;;;;4917447;29;20027;-81
2021/09/05 03:28:03;;;;;;;43.78;21.58;;;11.40;99.90;;;;;;4919632;28;20035;-81
2021/09/05 03:30:29;;;;;;;42.63;21.42;;;11.30;99.90;;;;;;4899088;29;20118;-81
2021/09/05 03:32:54;;;;;;;40.33;22.20;;;11.20;99.90;;;;;;4897566;29;20036;-81
2021/09/05 03:35:20;;;;;;;37.03;20.67;;;11.20;99.90;;;;;;4905344;29;20032;-80
2021/09/05 03:37:45;;;;;;;40.65;21.90;;;11.20;99.90;;;;;;4891272;29;20034;-80
2021/09/05 03:40:11;;;;;;;41.90;21.92;;;11.10;99.90;;;;;;4901734;29;20039;-81
2021/09/05 03:42:37;;;;;;;38.42;21.48;;;11.10;99.90;;;;;;4917988;29;20049;-81
2021/09/05 03:45:03;;;;;;;49.50;21.42;;;11.20;99.90;;;;;;4928553;29;20028;-80
2021/09/05 03:47:29;;;;;;;39.53;22.08;;;11.30;99.90;;;;;;4901329;29;20054;-81
2021/09/05 03:49:54;;;;;;;41.65;21.92;;;11.20;99.90;;;;;;4901536;29;20031;-82
2021/09/05 03:52:20;;;;;;;43.45;21.45;;;11.20;99.90;;;;;;4916602;29;20027;-82
2021/09/05 03:54:45;;;;;;;38.30;22.48;;;11.10;99.90;;;;;;4917313;28;20039;-81
2021/09/05 03:57:11;;;;;;;41.30;22.58;;;11.00;99.90;;;;;;4920265;29;20407;-80
2021/09/05 03:59:36;;;;;;;44.15;22.58;;;10.90;99.90;;;;;;4918794;29;20028;-81
2021/09/05 04:02:02;;;;;;;39.25;21.95;;;10.90;99.90;;;;;;4915929;28;20470;-81
2021/09/05 04:04:28;;;;;;;45.22;22.92;;;10.90;99.90;;;;;;4932800;29;20036;-81
2021/09/05 04:07:00;;;;;;;39.47;22.20;;;10.90;99.90;;;;;;4902457;29;20021;-83
2021/09/05 04:12:14;;;;;;;44.65;23.50;;;10.90;99.90;;;;;;4934591;28;20058;-81
2021/09/05 04:14:39;;;;;;;40.90;22.80;;;10.90;99.90;;;;;;4943826;28;20024;-81
2021/09/05 04:17:05;;;;;;;42.70;23.27;;;11.00;99.90;;;;;;4931034;28;20023;-80
2021/09/05 04:19:31;;;;;;;45.78;23.15;;;10.90;99.90;;;;;;4941041;29;20448;-81
2021/09/05 04:21:59;;;;;;;42.28;22.80;;;10.90;99.90;;;;;;4936498;28;20475;-80
2021/09/05 04:24:24;;;;;;;48.08;24.30;;;10.90;99.90;;;;;;4921833;28;20027;-81
2021/09/05 04:26:50;;;;;;;49.58;24.67;;;11.00;99.90;;;;;;4942224;28;20041;-81
2021/09/05 04:29:16;;;;;;;42.28;22.45;;;11.00;99.90;;;;;;4939557;28;20031;-80
2021/09/05 04:31:41;;;;;;;48.85;23.25;;;11.00;99.90;;;;;;4926097;28;20150;-81
2021/09/05 04:34:09;;;;;;;39.42;22.80;;;10.90;99.90;;;;;;4956185;28;20027;-82
2021/09/05 04:36:35;;;;;;;41.42;22.80;;;10.70;99.90;;;;;;4922526;28;20035;-80
2021/09/05 04:39:00;;;;;;;43.00;22.88;;;10.90;99.90;;;;;;4937439;28;20094;-81
2021/09/05 04:41:26;;;;;;;49.05;22.02;;;10.80;99.90;;;;;;4939560;28;20182;-81
2021/09/05 04:43:51;;;;;;;44.25;22.30;;;10.80;99.90;;;;;;4939107;28;20601;-82
2021/09/05 04:46:17;;;;;;;51.38;23.85;;;10.90;99.90;;;;;;4938518;29;20091;-82
2021/09/05 04:48:42;;;;;;;48.00;23.65;;;10.80;99.90;;;;;;4937245;28;20062;-81
2021/09/05 04:51:08;;;;;;;51.00;24.00;;;10.80;99.90;;;;;;4945197;28;20035;-81
2021/09/05 04:53:33;;;;;;;52.70;24.63;;;10.80;99.90;;;;;;4924687;28;20138;-81
2021/09/05 04:55:59;;;;;;;48.83;24.73;;;10.80;99.90;;;;;;4933299;28;20039;-84
2021/09/05 04:58:25;;;;;;;49.38;24.65;;;10.80;99.90;;;;;;4931659;28;20042;-81
2021/09/05 05:00:50;;;;;;;44.83;23.15;;;10.80;99.90;;;;;;4945344;28;20038;-83
2021/09/05 05:03:16;;;;;;;52.65;23.95;;;10.70;99.90;;;;;;4946878;28;20482;-81
2021/09/05 05:05:42;;;;;;;45.90;22.88;;;10.70;99.90;;;;;;4954505;28;20027;-81
2021/09/05 05:08:07;;;;;;;48.85;23.38;;;10.70;99.90;;;;;;4967619;28;20114;-81
2021/09/05 05:10:33;;;;;;;48.53;24.33;;;10.70;99.90;;;;;;4932972;28;20030;-80
2021/09/05 05:12:59;;;;;;;46.13;23.08;;;10.70;99.90;;;;;;4952851;28;20097;-80
2021/09/05 05:15:25;;;;;;;48.53;23.52;;;10.80;99.90;;;;;;4941730;28;20038;-81
2021/09/05 05:17:50;;;;;;;50.42;24.05;;;10.70;99.90;;;;;;4945751;28;20024;-81
2021/09/05 05:20:17;;;;;;;53.22;24.33;;;10.70;99.90;;;;;;4962335;28;20367;-81
2021/09/05 05:22:43;;;;;;;49.15;23.77;;;10.80;99.90;;;;;;4927162;28;20441;-82
2021/09/05 05:25:09;;;;;;;54.83;25.75;;;10.70;99.90;;;;;;4915394;29;20028;-81
2021/09/05 05:27:34;;;;;;;51.05;23.90;;;10.70;99.90;;;;;;4921209;28;20395;-81
2021/09/05 05:30:00;;;;;;;52.20;24.05;;;10.70;99.90;;;;;;4938561;28;20109;-80
2021/09/05 05:32:25;;;;;;;52.50;25.38;;;10.70;99.90;;;;;;4922473;28;20114;-80
2021/09/05 05:34:51;;;;;;;56.63;25.60;;;10.70;99.90;;;;;;4936339;28;20121;-81
2021/09/05 05:37:16;;;;;;;57.13;27.13;;;10.80;99.90;;;;;;4953911;28;20082;-80
2021/09/05 05:39:42;;;;;;;59.78;26.77;;;10.80;99.90;;;;;;4941076;28;20124;-82
2021/09/05 05:42:07;;;;;;;66.65;26.63;;;10.80;99.90;;;;;;4940180;28;20038;-84
2021/09/05 05:44:33;;;;;;;68.95;28.80;;;10.90;99.90;;;;;;4934135;29;20074;-82
2021/09/05 05:46:59;;;;;;;69.45;28.35;;;11.00;99.90;;;;;;4944301;28;20391;-82
2021/09/05 05:49:24;;;;;;;69.55;29.45;;;11.10;99.90;;;;;;4921875;28;20038;-83
2021/09/05 05:51:50;;;;;;;68.63;27.95;;;11.20;99.90;;;;;;4930090;28;20435;-81
2021/09/05 05:54:16;;;;;;;68.90;28.30;;;11.20;99.90;;;;;;4901000;29;20028;-81
2021/09/05 05:56:44;;;;;;;66.70;27.33;;;11.30;99.90;;;;;;4953403;28;20019;-80
2021/09/05 05:59:10;;;;;;;69.43;27.70;;;11.40;99.90;;;;;;4914988;28;20031;-81
2021/09/05 06:01:37;;;;;;;68.88;28.15;;;11.40;99.90;;;;;;4923728;28;20050;-80
2021/09/05 06:04:03;;;;;;;64.82;27.35;;;11.50;99.90;;;;;;4921703;28;20037;-80
2021/09/05 06:06:29;;;;;;;51.53;24.60;;;11.50;99.90;;;;;;4921690;28;20035;-81
2021/09/05 06:08:55;;;;;;;59.83;26.13;;;11.60;99.90;;;;;;4962834;28;20069;-80
2021/09/05 06:11:21;;;;;;;64.22;25.02;;;11.60;99.90;;;;;;4932202;28;20066;-82
2021/09/05 06:13:46;;;;;;;71.03;27.98;;;11.70;99.90;;;;;;4938685;28;20035;-81
2021/09/05 06:16:12;;;;;;;63.17;27.27;;;11.80;99.90;;;;;;4939145;28;20578;-82
2021/09/05 06:18:37;;;;;;;72.00;28.75;;;11.80;99.90;;;;;;4931100;28;20467;-81
2021/09/05 06:21:03;;;;;;;60.78;27.35;;;11.90;99.90;;;;;;4933102;28;20050;-82
2021/09/05 06:23:28;;;;;;;67.90;28.90;;;12.10;99.90;;;;;;4923099;28;20042;-82
2021/09/05 06:25:54;;;;;;;68.05;29.60;;;12.00;99.90;;;;;;4938209;28;20046;-82
2021/09/05 06:28:29;;;;;;;84.28;30.65;;;12.00;99.90;;;;;;4937240;28;20023;-82
2021/09/05 06:30:54;;;;;;;75.00;29.33;;;12.20;99.90;;;;;;4934299;29;20035;-85
2021/09/05 06:33:20;;;;;;;80.82;31.55;;;12.20;99.90;;;;;;4919613;29;20031;-82
2021/09/05 06:35:45;;;;;;;74.22;31.13;;;12.30;99.90;;;;;;4926510;28;20028;-81
2021/09/05 06:38:11;;;;;;;76.80;31.63;;;12.40;99.90;;;;;;4928047;29;20035;-83
2021/09/05 06:40:37;;;;;;;78.72;31.83;;;12.40;99.90;;;;;;4918282;28;20045;-83
2021/09/05 06:43:02;;;;;;;83.90;32.63;;;12.60;99.90;;;;;;4926956;29;20031;-81
2021/09/05 06:45:28;;;;;;;81.13;32.85;;;12.60;99.90;;;;;;4929310;28;20050;-81
2021/09/05 06:47:53;;;;;;;84.72;32.47;;;12.70;99.90;;;;;;4941967;28;20042;-80
2021/09/05 06:50:23;;;;;;;70.65;29.83;;;12.80;99.90;;;;;;4932768;28;20031;-82
2021/09/05 06:52:48;;;;;;;79.70;31.10;;;12.90;99.90;;;;;;4937422;28;20066;-82
2021/09/05 06:55:14;;;;;;;59.70;28.50;;;12.90;99.90;;;;;;4935189;28;20031;-82
2021/09/05 06:57:40;;;;;;;56.45;28.75;;;13.10;99.90;;;;;;4940158;28;20035;-81
2021/09/05 07:00:06;;;;;;;53.20;26.02;;;13.30;99.90;;;;;;4935097;28;20402;-82
2021/09/05 07:02:31;;;;;;;47.88;24.40;;;13.30;99.90;;;;;;4934221;28;20035;-81
2021/09/05 07:05:05;;;;;;;48.90;25.17;;;13.50;99.90;;;;;;4951301;28;20074;-81
2021/09/05 07:07:30;;;;;;;49.55;27.25;;;13.60;99.90;;;;;;4916157;29;20074;-81
2021/09/05 07:09:56;;;;;;;54.67;27.50;;;13.60;99.90;;;;;;4922656;28;20030;-81
2021/09/05 07:12:21;;;;;;;53.50;27.20;;;13.70;99.90;;;;;;4937842;28;20043;-81
2021/09/05 07:14:48;;;;;;;40.85;24.17;;;13.90;99.90;;;;;;4943758;28;20421;-81
2021/09/05 07:17:13;;;;;;;63.03;30.00;;;13.90;99.90;;;;;;4951484;28;20085;-81
2021/09/05 07:19:46;;;;;;;47.42;27.08;;;14.00;99.90;;;;;;4947895;28;20073;-80
2021/09/05 07:22:11;;;;;;;46.33;24.70;;;14.10;99.90;;;;;;4947342;28;20041;-80
2021/09/05 07:24:37;;;;;;;46.25;25.98;;;14.20;99.90;;;;;;4921308;28;20022;-80
2021/09/05 07:27:03;;;;;;;34.20;18.77;;;14.40;99.90;;;;;;4928496;28;20479;-81
2021/09/05 07:29:28;;;;;;;41.70;24.13;;;14.40;99.90;;;;;;4931345;28;20034;-81
2021/09/05 07:31:54;;;;;;;38.22;22.15;;;14.70;99.90;;;;;;4923193;28;20023;-82
2021/09/05 07:34:19;;;;;;;43.30;25.08;;;14.80;99.90;;;;;;4934188;28;20382;-81
2021/09/05 07:36:45;;;;;;;40.40;23.60;;;14.80;99.80;;;;;;4946682;28;20030;-82
2021/09/05 07:39:10;;;;;;;44.50;23.67;;;14.90;99.90;;;;;;4944431;28;20022;-82
2021/09/05 07:41:36;;;;;;;38.53;23.25;;;14.90;99.90;;;;;;4921229;28;20039;-81
2021/09/05 07:44:02;;;;;;;39.92;23.48;;;14.80;99.90;;;;;;4928822;28;20370;-82
2021/09/05 07:46:27;;;;;;;35.30;21.67;;;15.00;99.90;;;;;;4928318;28;20040;-82
2021/09/05 07:48:54;;;;;;;32.40;20.95;;;15.20;99.90;;;;;;4936606;28;20027;-81
2021/09/05 07:51:23;;;;;;;38.80;22.33;;;15.30;99.90;;;;;;4914403;29;20031;-81
2021/09/05 07:53:54;;;;;;;32.03;21.38;;;15.40;99.90;;;;;;4924144;29;20039;-82
2021/09/05 07:56:22;;;;;;;35.30;21.15;;;15.60;99.90;;;;;;4936889;28;20395;-82
2021/09/05 07:58:49;;;;;;;29.15;17.77;;;15.40;99.90;;;;;;4948999;28;20602;-81
2021/09/05 08:01:15;;;;;;;31.10;20.85;;;15.80;99.90;;;;;;4934573;28;20093;-81
2021/09/05 08:03:40;;;;;;;31.55;20.23;;;16.00;99.90;;;;;;4924197;29;20483;-81
2021/09/05 08:06:06;;;;;;;36.50;20.42;;;15.90;99.90;;;;;;4924417;29;20078;-81
2021/09/05 08:08:35;;;;;;;32.03;20.55;;;16.20;99.90;;;;;;4924707;29;20035;-81
2021/09/05 08:11:04;;;;;;;25.65;17.20;;;16.10;99.90;;;;;;4919348;29;20035;-82
2021/09/05 08:13:30;;;;;;;29.10;18.40;;;16.20;99.90;;;;;;4925198;29;20074;-82
2021/09/05 08:16:00;;;;;;;26.80;16.98;;;16.60;98.60;;;;;;4928763;28;20076;-81
2021/09/05 08:18:29;;;;;;;26.50;15.30;;;16.70;99.80;;;;;;4928771;29;20098;-81
2021/09/05 08:20:55;;;;;;;28.83;18.73;;;16.90;98.50;;;;;;4929639;28;20070;-83
2021/09/05 08:23:21;;;;;;;30.95;19.67;;;17.20;99.10;;;;;;4924289;28;20435;-80
2021/09/05 08:25:46;;;;;;;18.20;13.10;;;17.30;99.30;;;;;;4932646;28;20032;-81
2021/09/05 08:28:12;;;;;;;26.88;18.38;;;17.50;99.40;;;;;;4927809;28;20103;-81
2021/09/05 08:30:38;;;;;;;29.15;18.13;;;17.40;99.90;;;;;;4926085;28;20035;-81
2021/09/05 08:33:04;;;;;;;18.55;12.75;;;17.50;99.90;;;;;;4937166;28;20085;-82
2021/09/05 08:35:29;;;;;;;26.52;18.30;;;17.60;99.20;;;;;;4914964;29;20039;-81
2021/09/05 08:37:55;;;;;;;20.38;14.93;;;17.90;99.10;;;;;;4938666;28;20039;-83
2021/09/05 08:40:23;;;;;;;29.42;17.98;;;17.90;99.10;;;;;;4908037;29;20384;-82
2021/09/05 08:42:48;;;;;;;25.10;16.63;;;17.80;99.90;;;;;;4925912;29;20048;-85
2021/09/05 08:45:15;;;;;;;23.15;15.57;;;18.10;99.40;;;;;;4930060;28;20126;-82
2021/09/05 08:47:41;;;;;;;25.63;16.27;;;18.30;99.40;;;;;;4913758;28;20399;-81
2021/09/05 08:50:06;;;;;;;23.58;15.45;;;18.90;98.20;;;;;;4941999;28;20103;-81
2021/09/05 08:52:33;;;;;;;23.52;14.52;;;18.70;99.40;;;;;;4923769;28;20509;-82
2021/09/05 08:54:58;;;;;;;18.70;13.57;;;18.70;99.90;;;;;;4932579;28;20031;-82
2021/09/05 08:57:24;;;;;;;19.92;12.73;;;19.20;97.80;;;;;;4928774;29;20075;-82
2021/09/05 08:59:49;;;;;;;19.20;12.25;;;19.30;97.50;;;;;;4936462;28;20106;-81
2021/09/05 09:02:15;;;;;;;17.40;12.70;;;19.60;97.50;;;;;;4923965;28;20031;-81
2021/09/05 09:04:52;;;;;;;17.15;12.93;;;19.80;98.60;;;;;;4927748;28;20038;-82
2021/09/05 09:07:18;;;;;;;19.45;12.48;;;19.70;98.20;;;;;;4913318;29;20452;-82
2021/09/05 09:09:52;;;;;;;23.02;15.02;;;19.90;97.80;;;;;;4904250;29;20110;-82
2021/09/05 09:12:17;;;;;;;22.30;14.10;;;20.10;99.00;;;;;;4961087;28;20043;-81
2021/09/05 09:14:54;;;;;;;24.98;14.60;;;19.80;99.40;;;;;;4926259;29;20028;-82
2021/09/05 09:17:20;;;;;;;20.70;15.50;;;19.80;99.90;;;;;;4956599;28;20022;-82
2021/09/05 09:19:46;;;;;;;23.48;15.40;;;19.60;99.90;;;;;;4935306;28;20034;-83
2021/09/05 09:22:19;;;;;;;19.23;14.07;;;19.70;99.90;;;;;;4950039;28;20030;-83
2021/09/05 09:24:44;;;;;;;22.38;14.00;;;19.80;99.60;;;;;;4954802;28;20072;-83
2021/09/05 09:27:11;;;;;;;17.90;12.90;;;20.00;98.70;;;;;;4956139;28;20050;-82
2021/09/05 09:29:37;;;;;;;21.25;13.85;;;20.50;98.70;;;;;;4953589;28;20437;-83
2021/09/05 09:32:23;;;;;;;22.63;15.93;;;20.80;98.80;;;;;;4930877;29;20032;-84
2021/09/05 09:34:50;;;;;;;20.33;13.85;;;20.50;99.60;;;;;;4933457;28;20124;-82
2021/09/05 09:37:20;;;;;;;19.90;13.73;;;20.50;99.00;;;;;;4930481;28;20055;-82
2021/09/05 09:39:46;;;;;;;24.35;13.98;;;20.50;98.50;;;;;;4934407;28;20062;-82
2021/09/05 09:42:37;;;;;;;18.85;12.68;;;20.70;98.90;;;;;;4911703;29;20031;-81
2021/09/05 09:45:08;;;;;;;18.20;13.13;;;20.90;97.90;;;;;;4949174;28;20027;-81
2021/09/05 09:47:52;;;;;;;18.73;12.73;;;20.80;98.80;;;;;;4955058;28;20372;-82
2021/09/05 09:50:32;;;;;;;16.75;11.35;;;21.30;98.20;;;;;;4936223;29;20081;-81
2021/09/05 09:52:57;;;;;;;22.98;13.25;;;21.90;96.90;;;;;;4903165;29;20028;-81
2021/09/05 09:55:23;;;;;;;22.65;13.82;;;21.80;96.70;;;;;;4924012;28;20038;-82
2021/09/05 09:57:48;;;;;;;22.63;12.23;;;22.10;97.40;;;;;;4916871;29;20483;-82
2021/09/05 10:00:15;;;;;;;19.95;12.73;;;22.20;96.30;;;;;;4937547;28;20034;-82
2021/09/05 10:02:42;;;;;;;17.65;13.23;;;22.30;96.90;;;;;;4940677;28;20066;-83
2021/09/05 10:05:08;;;;;;;18.52;11.90;;;22.10;97.20;;;;;;4944525;28;20368;-82
2021/09/05 10:07:34;;;;;;;18.95;13.25;;;22.40;96.10;;;;;;4925574;28;20046;-82
2021/09/05 10:10:01;;;;;;;20.77;13.07;;;22.30;97.80;;;;;;4947352;28;20189;-82
2021/09/05 10:12:27;;;;;;;23.73;12.48;;;22.20;97.50;;;;;;4940156;28;20058;-82
2021/09/05 10:14:53;;;;;;;18.48;12.25;;;22.10;98.00;;;;;;4921416;28;20427;-82
2021/09/05 10:17:21;;;;;;;15.43;11.77;;;21.90;97.90;;;;;;4921226;29;20038;-82
2021/09/05 10:19:50;;;;;;;16.90;12.07;;;22.20;97.90;;;;;;4946305;28;20398;-81
2021/09/05 10:22:20;;;;;;;14.60;10.75;;;22.00;98.20;;;;;;4917799;28;20388;-82
2021/09/05 10:24:52;;;;;;;15.55;11.65;;;22.30;96.60;;;;;;4923602;29;20110;-82
2021/09/05 10:27:34;;;;;;;17.45;13.27;;;22.50;96.00;;;;;;4949906;28;20090;-82
2021/09/05 10:30:08;;;;;;;20.15;12.68;;;22.30;97.50;;;;;;4929887;29;20395;-82
2021/09/05 10:33:06;;;;;;;18.77;12.90;;;22.20;97.00;;;;;;4976375;28;20042;-83
2021/09/05 10:35:36;;;;;;;16.40;13.55;;;22.10;96.50;;;;;;4932881;28;20069;-83
2021/09/05 10:38:10;;;;;;;17.02;13.23;;;22.20;96.00;;;;;;4926197;28;20035;-84
2021/09/05 10:40:43;;;;;;;15.35;12.25;;;22.30;96.50;;;;;;4943801;28;20406;-83
2021/09/05 10:43:09;;;;;;;19.45;12.40;;;22.30;95.70;;;;;;4948517;28;20051;-83
2021/09/05 10:45:35;;;;;;;16.83;13.57;;;22.40;96.00;;;;;;4937941;28;20057;-83
2021/09/05 10:48:02;;;;;;;19.60;14.05;;;22.70;95.00;;;;;;4936977;28;20090;-83
2021/09/05 10:50:36;;;;;;;17.75;13.15;;;22.60;94.80;;;;;;4933388;29;20567;-83
2021/09/05 10:53:23;;;;;;;16.67;12.13;;;22.70;96.20;;;;;;4921589;28;20027;-83
2021/09/05 10:56:11;;;;;;;15.95;11.82;;;22.70;96.40;;;;;;4943770;28;20542;-84
2021/09/05 10:59:01;;;;;;;15.63;12.00;;;22.90;95.40;;;;;;4909369;28;20797;-84
2021/09/05 11:01:36;;;;;;;18.55;12.35;;;22.90;95.60;;;;;;4919269;28;20070;-85
2021/09/05 11:04:17;;;;;;;18.40;11.67;;;23.10;95.60;;;;;;4604056;28;9999668;-84
2021/09/05 11:07:02;;;;;;;12.70;9.70;;;23.20;95.50;;;;;;4939287;28;20289;-84
2021/09/05 11:09:28;;;;;;;15.75;11.55;;;23.40;95.80;;;;;;4942863;28;20534;-85
2021/09/05 11:12:14;;;;;;;23.02;13.00;;;23.50;95.60;;;;;;4948749;28;20059;-83
2021/09/05 11:14:40;;;;;;;22.17;13.13;;;23.60;95.60;;;;;;4959749;28;20074;-85
2021/09/05 11:17:21;;;;;;;18.55;12.02;;;23.70;95.20;;;;;;4949124;28;20035;-83
2021/09/05 11:19:53;;;;;;;14.73;10.80;;;23.80;95.40;;;;;;4936100;28;20036;-85
2021/09/05 11:22:30;;;;;;;16.30;12.20;;;24.30;94.20;;;;;;4933473;28;20034;-83
2021/09/05 11:25:22;;;;;;;16.35;10.90;;;24.30;95.10;;;;;;4937846;28;20019;-84
2021/09/05 11:27:48;;;;;;;11.65;9.65;;;24.90;94.10;;;;;;4963921;28;20038;-85
2021/09/05 11:30:14;;;;;;;16.05;12.52;;;25.50;94.00;;;;;;4933303;28;20059;-83
2021/09/05 11:32:40;;;;;;;14.13;11.65;;;25.00;91.80;;;;;;4923927;29;20546;-83
2021/09/05 11:35:09;;;;;;;18.27;11.18;;;24.50;94.20;;;;;;4906751;28;20038;-85
2021/09/05 11:37:42;;;;;;;16.33;11.48;;;24.30;94.50;;;;;;4923176;29;20042;-85
2021/09/05 11:40:11;;;;;;;16.30;11.15;;;24.30;95.00;;;;;;4903531;29;20736;-86
2021/09/05 11:42:41;;;;;;;14.25;11.20;;;25.10;94.30;;;;;;4913284;29;20036;-85
2021/09/05 11:45:11;;;;;;;14.82;9.57;;;25.20;93.40;;;;;;4916803;29;20028;-85
2021/09/05 11:47:36;;;;;;;17.48;10.90;;;27.10;90.60;;;;;;4909786;29;20081;-84
2021/09/05 11:50:03;;;;;;;16.65;11.38;;;27.00;87.30;;;;;;4910566;29;20087;-85
2021/09/05 11:52:33;;;;;;;14.65;11.02;;;26.80;91.40;;;;;;4915420;29;20439;-84
2021/09/05 11:55:08;;;;;;;12.02;8.90;;;26.50;91.80;;;;;;4913442;29;20035;-84
2021/09/05 11:57:56;;;;;;;15.90;10.98;;;26.10;92.20;;;;;;4953609;28;20407;-86
2021/09/05 12:00:24;;;;;;;15.27;9.80;;;26.40;92.70;;;;;;4954301;28;20106;-86
2021/09/05 12:02:50;;;;;;;15.30;11.68;;;26.60;92.60;;;;;;4952171;28;20031;-85
2021/09/05 12:05:16;;;;;;;16.75;10.43;;;26.50;92.90;;;;;;4942997;28;20105;-86
2021/09/05 12:07:41;;;;;;;15.43;11.05;;;26.50;92.30;;;;;;4932936;28;20467;-86
2021/09/05 12:10:09;;;;;;;20.48;12.90;;;26.80;92.50;;;;;;4924303;28;20393;-87
2021/09/05 12:12:36;;;;;;;11.95;8.73;;;26.30;92.00;;;;;;4916789;29;20070;-86
2021/09/05 12:15:20;;;;;;;17.20;13.25;;;26.80;92.00;;;;;;4918646;28;20097;-87
2021/09/05 12:17:48;;;;;;;16.95;12.30;;;26.60;91.40;;;;;;4922529;28;20093;-88
2021/09/05 12:20:15;;;;;;;20.65;12.40;;;26.20;92.50;;;;;;4942196;28;20110;-88
2021/09/05 12:22:45;;;;;;;13.38;10.20;;;26.60;92.60;;;;;;4943261;28;20031;-88
2021/09/05 12:25:31;;;;;;;16.55;12.45;;;27.10;92.00;;;;;;4937403;28;20034;-89
2021/09/05 12:28:02;;;;;;;10.40;8.93;;;27.10;91.10;;;;;;4944448;28;20034;-89
2021/09/05 12:30:42;;;;;;;17.10;11.68;;;27.00;91.10;;;;;;4932765;29;20053;-89
2021/09/05 12:33:21;;;;;;;15.02;11.60;;;27.60;90.50;;;;;;4935910;28;20032;-91